sensor_id;sensor_type;location;lat;lon;timestamp;P1;durP1;ratioP1;P2;durP2;ratioP2
24813;SDS011;12904;50.088;11.414;2023-12-20T00:00:54;26.10;;;12.35;;
24813;SDS011;12904;50.088;11.414;2023-12-20T00:03:19;15.13;;;12.50;;
24813;SDS011;12904;50.088;11.414;2023-12-20T00:05:45;20.85;;;13.07;;
24813;SDS011;12904;50.088;11.414;2023-12-20T00:08:11;15.77;;;11.02;;
24813;SDS011;12904;50.088;11.414;2023-12-20T00:10:37;15.57;;;12.27;;
24813;SDS011;12904;50.088;11.414;2023-12-20T00:13:03;18.40;;;11.45;;
24813;SDS011;12904;50.088;11.414;2023-12-20T00:15:28;13.45;;;11.38;;
24813;SDS011;12904;50.088;11.414;2023-12-20T00:17:54;12.35;;;10.60;;
24813;SDS011;12904;50.088;11.414;2023-12-20T00:20:20;15.55;;;9.85;;
24813;SDS011;12904;50.088;11.414;2023-12-20T00:22:45;13.38;;;9.57;;
24813;SDS011;12904;50.088;11.414;2023-12-20T00:25:11;9.25;;;7.63;;
24813;SDS011;12904;50.088;11.414;2023-12-20T00:27:37;8.50;;;7.35;;
24813;SDS011;12904;50.088;11.414;2023-12-20T00:30:02;9.23;;;7.50;;
24813;SDS011;12904;50.088;11.414;2023-12-20T00:32:28;8.50;;;7.30;;
24813;SDS011;12904;50.088;11.414;2023-12-20T00:34:54;7.72;;;6.88;;
24813;SDS011;12904;50.088;11.414;2023-12-20T00:37:19;8.38;;;7.13;;
24813;SDS011;12904;50.088;11.414;2023-12-20T00:39:45;7.97;;;6.90;;
24813;SDS011;12904;50.088;11.414;2023-12-20T00:42:10;9.07;;;8.07;;
24813;SDS011;12904;50.088;11.414;2023-12-20T00:44:36;8.20;;;5.82;;
24813;SDS011;12904;50.088;11.414;2023-12-20T00:47:02;7.95;;;7.10;;
24813;SDS011;12904;50.088;11.414;2023-12-20T00:49:27;7.60;;;6.20;;
24813;SDS011;12904;50.088;11.414;2023-12-20T00:51:53;15.70;;;7.32;;
24813;SDS011;12904;50.088;11.414;2023-12-20T00:54:19;5.85;;;5.18;;
24813;SDS011;12904;50.088;11.414;2023-12-20T00:56:44;7.78;;;7.03;;
24813;SDS011;12904;50.088;11.414;2023-12-20T00:59:10;6.90;;;6.20;;
24813;SDS011;12904;50.088;11.414;2023-12-20T01:01:36;7.18;;;6.35;;
24813;SDS011;12904;50.088;11.414;2023-12-20T01:04:01;7.65;;;6.85;;
24813;SDS011;12904;50.088;11.414;2023-12-20T01:06:27;8.05;;;6.72;;
24813;SDS011;12904;50.088;11.414;2023-12-20T01:08:53;7.78;;;6.97;;
24813;SDS011;12904;50.088;11.414;2023-12-20T01:11:18;6.25;;;5.65;;
24813;SDS011;12904;50.088;11.414;2023-12-20T01:13:44;8.50;;;5.80;;
24813;SDS011;12904;50.088;11.414;2023-12-20T01:16:10;8.05;;;6.28;;
24813;SDS011;12904;50.088;11.414;2023-12-20T01:18:36;7.47;;;4.90;;
24813;SDS011;12904;50.088;11.414;2023-12-20T01:21:02;6.20;;;5.57;;
24813;SDS011;12904;50.088;11.414;2023-12-20T01:23:28;5.85;;;4.88;;
24813;SDS011;12904;50.088;11.414;2023-12-20T01:25:54;6.30;;;4.93;;
24813;SDS011;12904;50.088;11.414;2023-12-20T01:28:20;6.43;;;4.40;;
24813;SDS011;12904;50.088;11.414;2023-12-20T01:30:45;5.68;;;4.55;;
24813;SDS011;12904;50.088;11.414;2023-12-20T01:33:11;4.80;;;4.15;;
24813;SDS011;12904;50.088;11.414;2023-12-20T01:35:37;4.80;;;3.90;;
24813;SDS011;12904;50.088;11.414;2023-12-20T01:38:03;4.30;;;3.15;;
24813;SDS011;12904;50.088;11.414;2023-12-20T01:40:28;5.95;;;4.32;;
24813;SDS011;12904;50.088;11.414;2023-12-20T01:42:57;3.78;;;2.75;;
24813;SDS011;12904;50.088;11.414;2023-12-20T01:45:24;2.72;;;2.45;;
24813;SDS011;12904;50.088;11.414;2023-12-20T01:47:50;2.90;;;2.53;;
24813;SDS011;12904;50.088;11.414;2023-12-20T01:50:16;3.30;;;2.25;;
24813;SDS011;12904;50.088;11.414;2023-12-20T01:52:42;3.13;;;2.60;;
24813;SDS011;12904;50.088;11.414;2023-12-20T01:55:08;2.67;;;2.22;;
24813;SDS011;12904;50.088;11.414;2023-12-20T01:57:39;3.20;;;2.33;;
24813;SDS011;12904;50.088;11.414;2023-12-20T02:00:06;3.33;;;2.10;;
24813;SDS011;12904;50.088;11.414;2023-12-20T02:02:34;3.80;;;1.75;;
24813;SDS011;12904;50.088;11.414;2023-12-20T02:05:01;2.78;;;2.00;;
24813;SDS011;12904;50.088;11.414;2023-12-20T02:07:28;2.22;;;2.03;;
24813;SDS011;12904;50.088;11.414;2023-12-20T02:09:55;2.17;;;1.80;;
24813;SDS011;12904;50.088;11.414;2023-12-20T02:12:21;2.10;;;1.88;;
24813;SDS011;12904;50.088;11.414;2023-12-20T02:14:48;4.93;;;1.92;;
24813;SDS011;12904;50.088;11.414;2023-12-20T02:17:14;2.40;;;1.55;;
24813;SDS011;12904;50.088;11.414;2023-12-20T02:19:40;1.95;;;1.50;;
24813;SDS011;12904;50.088;11.414;2023-12-20T02:22:06;2.30;;;2.00;;
24813;SDS011;12904;50.088;11.414;2023-12-20T02:24:33;4.25;;;1.70;;
24813;SDS011;12904;50.088;11.414;2023-12-20T02:26:58;2.25;;;1.42;;
24813;SDS011;12904;50.088;11.414;2023-12-20T02:29:24;2.25;;;1.40;;
24813;SDS011;12904;50.088;11.414;2023-12-20T02:31:50;2.08;;;1.20;;
24813;SDS011;12904;50.088;11.414;2023-12-20T02:34:16;1.60;;;1.27;;
24813;SDS011;12904;50.088;11.414;2023-12-20T02:36:41;3.05;;;1.60;;
24813;SDS011;12904;50.088;11.414;2023-12-20T02:39:07;1.83;;;1.30;;
24813;SDS011;12904;50.088;11.414;2023-12-20T02:41:33;1.55;;;1.10;;
24813;SDS011;12904;50.088;11.414;2023-12-20T02:43:58;1.67;;;1.20;;
24813;SDS011;12904;50.088;11.414;2023-12-20T02:46:24;1.38;;;1.20;;
24813;SDS011;12904;50.088;11.414;2023-12-20T02:48:49;1.30;;;1.10;;
24813;SDS011;12904;50.088;11.414;2023-12-20T02:51:15;1.33;;;1.10;;
24813;SDS011;12904;50.088;11.414;2023-12-20T02:53:41;1.77;;;1.30;;
24813;SDS011;12904;50.088;11.414;2023-12-20T02:56:06;1.90;;;1.20;;
24813;SDS011;12904;50.088;11.414;2023-12-20T02:58:32;1.58;;;1.00;;
24813;SDS011;12904;50.088;11.414;2023-12-20T03:00:57;1.70;;;0.90;;
24813;SDS011;12904;50.088;11.414;2023-12-20T03:03:23;1.20;;;0.95;;
24813;SDS011;12904;50.088;11.414;2023-12-20T03:05:49;0.82;;;0.82;;
24813;SDS011;12904;50.088;11.414;2023-12-20T03:08:14;1.02;;;0.82;;
24813;SDS011;12904;50.088;11.414;2023-12-20T03:10:40;0.80;;;0.80;;
24813;SDS011;12904;50.088;11.414;2023-12-20T03:13:06;1.23;;;0.90;;
24813;SDS011;12904;50.088;11.414;2023-12-20T03:15:31;9.80;;;0.70;;
24813;SDS011;12904;50.088;11.414;2023-12-20T03:17:57;0.65;;;0.60;;
24813;SDS011;12904;50.088;11.414;2023-12-20T03:20:24;1.15;;;0.80;;
24813;SDS011;12904;50.088;11.414;2023-12-20T03:22:51;1.10;;;0.80;;
24813;SDS011;12904;50.088;11.414;2023-12-20T03:25:17;1.75;;;0.88;;
24813;SDS011;12904;50.088;11.414;2023-12-20T03:27:42;1.55;;;0.68;;
24813;SDS011;12904;50.088;11.414;2023-12-20T03:30:08;1.05;;;0.95;;
24813;SDS011;12904;50.088;11.414;2023-12-20T03:32:34;0.60;;;0.60;;
24813;SDS011;12904;50.088;11.414;2023-12-20T03:35:00;0.88;;;0.63;;
24813;SDS011;12904;50.088;11.414;2023-12-20T03:37:25;2.97;;;0.65;;
24813;SDS011;12904;50.088;11.414;2023-12-20T03:39:51;0.70;;;0.60;;
24813;SDS011;12904;50.088;11.414;2023-12-20T03:42:16;0.60;;;0.50;;
24813;SDS011;12904;50.088;11.414;2023-12-20T03:44:42;1.10;;;0.50;;
24813;SDS011;12904;50.088;11.414;2023-12-20T03:47:08;0.73;;;0.65;;
24813;SDS011;12904;50.088;11.414;2023-12-20T03:49:33;0.90;;;0.70;;
24813;SDS011;12904;50.088;11.414;2023-12-20T03:52:02;0.55;;;0.50;;
24813;SDS011;12904;50.088;11.414;2023-12-20T03:54:28;0.50;;;0.50;;
24813;SDS011;12904;50.088;11.414;2023-12-20T03:56:53;0.80;;;0.63;;
24813;SDS011;12904;50.088;11.414;2023-12-20T03:59:19;0.90;;;0.60;;
24813;SDS011;12904;50.088;11.414;2023-12-20T04:01:44;2.35;;;0.50;;
24813;SDS011;12904;50.088;11.414;2023-12-20T04:04:10;1.73;;;0.65;;
24813;SDS011;12904;50.088;11.414;2023-12-20T04:06:36;0.65;;;0.50;;
24813;SDS011;12904;50.088;11.414;2023-12-20T04:09:03;0.77;;;0.60;;
24813;SDS011;12904;50.088;11.414;2023-12-20T04:11:28;1.13;;;0.50;;
24813;SDS011;12904;50.088;11.414;2023-12-20T04:13:54;0.60;;;0.60;;
24813;SDS011;12904;50.088;11.414;2023-12-20T04:16:19;0.75;;;0.50;;
24813;SDS011;12904;50.088;11.414;2023-12-20T04:18:45;1.77;;;0.60;;
24813;SDS011;12904;50.088;11.414;2023-12-20T04:21:11;0.50;;;0.50;;
24813;SDS011;12904;50.088;11.414;2023-12-20T04:23:36;0.40;;;0.40;;
24813;SDS011;12904;50.088;11.414;2023-12-20T04:26:02;0.80;;;0.60;;
24813;SDS011;12904;50.088;11.414;2023-12-20T04:28:27;1.05;;;0.40;;
24813;SDS011;12904;50.088;11.414;2023-12-20T04:30:55;0.40;;;0.40;;
24813;SDS011;12904;50.088;11.414;2023-12-20T04:33:21;0.47;;;0.40;;
24813;SDS011;12904;50.088;11.414;2023-12-20T04:35:47;0.30;;;0.30;;
24813;SDS011;12904;50.088;11.414;2023-12-20T04:38:13;0.32;;;0.32;;
24813;SDS011;12904;50.088;11.414;2023-12-20T04:40:39;0.32;;;0.32;;
24813;SDS011;12904;50.088;11.414;2023-12-20T04:43:06;0.40;;;0.40;;
24813;SDS011;12904;50.088;11.414;2023-12-20T04:45:32;0.40;;;0.40;;
24813;SDS011;12904;50.088;11.414;2023-12-20T04:47:57;0.77;;;0.30;;
24813;SDS011;12904;50.088;11.414;2023-12-20T04:50:23;0.30;;;0.30;;
24813;SDS011;12904;50.088;11.414;2023-12-20T04:52:48;0.30;;;0.30;;
24813;SDS011;12904;50.088;11.414;2023-12-20T04:55:14;0.30;;;0.30;;
24813;SDS011;12904;50.088;11.414;2023-12-20T04:57:40;0.40;;;0.40;;
24813;SDS011;12904;50.088;11.414;2023-12-20T05:00:06;0.30;;;0.30;;
24813;SDS011;12904;50.088;11.414;2023-12-20T05:02:33;0.40;;;0.40;;
24813;SDS011;12904;50.088;11.414;2023-12-20T05:05:00;0.40;;;0.40;;
24813;SDS011;12904;50.088;11.414;2023-12-20T05:07:25;0.93;;;0.40;;
24813;SDS011;12904;50.088;11.414;2023-12-20T05:09:51;0.30;;;0.30;;
24813;SDS011;12904;50.088;11.414;2023-12-20T05:12:17;0.40;;;0.40;;
24813;SDS011;12904;50.088;11.414;2023-12-20T05:14:42;0.30;;;0.30;;
24813;SDS011;12904;50.088;11.414;2023-12-20T05:17:08;0.35;;;0.35;;
24813;SDS011;12904;50.088;11.414;2023-12-20T05:19:33;0.65;;;0.50;;
24813;SDS011;12904;50.088;11.414;2023-12-20T05:22:02;0.40;;;0.40;;
24813;SDS011;12904;50.088;11.414;2023-12-20T05:24:28;1.25;;;0.40;;
24813;SDS011;12904;50.088;11.414;2023-12-20T05:26:53;0.40;;;0.40;;
24813;SDS011;12904;50.088;11.414;2023-12-20T05:29:19;0.40;;;0.40;;
24813;SDS011;12904;50.088;11.414;2023-12-20T05:31:45;0.60;;;0.60;;
24813;SDS011;12904;50.088;11.414;2023-12-20T05:34:11;0.47;;;0.47;;
24813;SDS011;12904;50.088;11.414;2023-12-20T05:36:36;0.50;;;0.50;;
24813;SDS011;12904;50.088;11.414;2023-12-20T05:39:03;3.05;;;1.40;;
24813;SDS011;12904;50.088;11.414;2023-12-20T05:41:29;1.10;;;0.57;;
24813;SDS011;12904;50.088;11.414;2023-12-20T05:43:55;1.45;;;1.35;;
24813;SDS011;12904;50.088;11.414;2023-12-20T05:46:23;0.80;;;0.80;;
24813;SDS011;12904;50.088;11.414;2023-12-20T05:48:49;2.90;;;1.00;;
24813;SDS011;12904;50.088;11.414;2023-12-20T05:51:16;0.93;;;0.82;;
24813;SDS011;12904;50.088;11.414;2023-12-20T05:53:42;1.33;;;1.10;;
24813;SDS011;12904;50.088;11.414;2023-12-20T05:56:09;1.10;;;1.00;;
24813;SDS011;12904;50.088;11.414;2023-12-20T05:58:35;1.48;;;1.20;;
24813;SDS011;12904;50.088;11.414;2023-12-20T06:01:00;1.40;;;1.30;;
24813;SDS011;12904;50.088;11.414;2023-12-20T06:03:29;1.60;;;1.20;;
24813;SDS011;12904;50.088;11.414;2023-12-20T06:05:55;1.60;;;1.30;;
24813;SDS011;12904;50.088;11.414;2023-12-20T06:08:21;1.50;;;1.40;;
24813;SDS011;12904;50.088;11.414;2023-12-20T06:10:46;1.63;;;1.52;;
24813;SDS011;12904;50.088;11.414;2023-12-20T06:13:12;2.08;;;1.65;;
24813;SDS011;12904;50.088;11.414;2023-12-20T06:15:38;2.13;;;1.80;;
24813;SDS011;12904;50.088;11.414;2023-12-20T06:18:05;1.40;;;1.27;;
24813;SDS011;12904;50.088;11.414;2023-12-20T06:20:31;1.45;;;1.20;;
24813;SDS011;12904;50.088;11.414;2023-12-20T06:22:57;1.83;;;1.63;;
24813;SDS011;12904;50.088;11.414;2023-12-20T06:25:22;1.50;;;1.30;;
24813;SDS011;12904;50.088;11.414;2023-12-20T06:27:48;1.17;;;1.08;;
24813;SDS011;12904;50.088;11.414;2023-12-20T06:30:15;1.30;;;1.00;;
24813;SDS011;12904;50.088;11.414;2023-12-20T06:32:41;1.60;;;1.20;;
24813;SDS011;12904;50.088;11.414;2023-12-20T06:35:08;1.75;;;1.30;;
24813;SDS011;12904;50.088;11.414;2023-12-20T06:37:34;1.70;;;1.40;;
24813;SDS011;12904;50.088;11.414;2023-12-20T06:40:00;1.48;;;0.98;;
24813;SDS011;12904;50.088;11.414;2023-12-20T06:42:26;2.65;;;1.00;;
24813;SDS011;12904;50.088;11.414;2023-12-20T06:44:52;2.30;;;1.10;;
24813;SDS011;12904;50.088;11.414;2023-12-20T06:47:17;1.10;;;1.00;;
24813;SDS011;12904;50.088;11.414;2023-12-20T06:49:43;1.60;;;1.50;;
24813;SDS011;12904;50.088;11.414;2023-12-20T06:52:09;1.90;;;1.60;;
24813;SDS011;12904;50.088;11.414;2023-12-20T06:54:35;1.60;;;1.42;;
24813;SDS011;12904;50.088;11.414;2023-12-20T06:57:01;6.63;;;1.42;;
24813;SDS011;12904;50.088;11.414;2023-12-20T06:59:28;1.80;;;1.48;;
24813;SDS011;12904;50.088;11.414;2023-12-20T07:01:54;1.45;;;1.35;;
24813;SDS011;12904;50.088;11.414;2023-12-20T07:04:19;2.15;;;1.63;;
24813;SDS011;12904;50.088;11.414;2023-12-20T07:06:46;1.80;;;1.70;;
24813;SDS011;12904;50.088;11.414;2023-12-20T07:09:13;2.47;;;1.88;;
24813;SDS011;12904;50.088;11.414;2023-12-20T07:11:39;2.28;;;1.88;;
24813;SDS011;12904;50.088;11.414;2023-12-20T07:14:05;2.40;;;1.95;;
24813;SDS011;12904;50.088;11.414;2023-12-20T07:16:30;2.20;;;2.00;;
24813;SDS011;12904;50.088;11.414;2023-12-20T07:18:57;4.55;;;2.25;;
24813;SDS011;12904;50.088;11.414;2023-12-20T07:21:22;3.88;;;2.58;;
24813;SDS011;12904;50.088;11.414;2023-12-20T07:23:48;3.67;;;2.47;;
24813;SDS011;12904;50.088;11.414;2023-12-20T07:26:14;2.70;;;2.33;;
24813;SDS011;12904;50.088;11.414;2023-12-20T07:28:40;18.25;;;15.20;;
24813;SDS011;12904;50.088;11.414;2023-12-20T07:31:06;3.47;;;2.40;;
24813;SDS011;12904;50.088;11.414;2023-12-20T07:33:31;3.10;;;2.75;;
24813;SDS011;12904;50.088;11.414;2023-12-20T07:35:58;5.70;;;2.47;;
24813;SDS011;12904;50.088;11.414;2023-12-20T07:38:24;2.40;;;2.10;;
24813;SDS011;12904;50.088;11.414;2023-12-20T07:40:50;4.15;;;2.28;;
24813;SDS011;12904;50.088;11.414;2023-12-20T07:43:16;3.40;;;1.92;;
24813;SDS011;12904;50.088;11.414;2023-12-20T07:45:41;6.88;;;2.80;;
24813;SDS011;12904;50.088;11.414;2023-12-20T07:48:07;2.45;;;2.10;;
24813;SDS011;12904;50.088;11.414;2023-12-20T07:50:33;3.33;;;2.55;;
24813;SDS011;12904;50.088;11.414;2023-12-20T07:52:59;6.00;;;2.42;;
24813;SDS011;12904;50.088;11.414;2023-12-20T07:55:25;20.10;;;18.25;;
24813;SDS011;12904;50.088;11.414;2023-12-20T07:57:51;2.55;;;2.35;;
24813;SDS011;12904;50.088;11.414;2023-12-20T08:00:18;3.85;;;2.22;;
24813;SDS011;12904;50.088;11.414;2023-12-20T08:02:43;2.58;;;2.05;;
24813;SDS011;12904;50.088;11.414;2023-12-20T08:05:09;4.47;;;4.07;;
24813;SDS011;12904;50.088;11.414;2023-12-20T08:07:35;4.30;;;3.90;;
24813;SDS011;12904;50.088;11.414;2023-12-20T08:10:00;5.60;;;2.67;;
24813;SDS011;12904;50.088;11.414;2023-12-20T08:12:26;5.50;;;4.00;;
24813;SDS011;12904;50.088;11.414;2023-12-20T08:14:52;3.45;;;2.60;;
24813;SDS011;12904;50.088;11.414;2023-12-20T08:17:19;6.82;;;6.13;;
24813;SDS011;12904;50.088;11.414;2023-12-20T08:19:44;4.20;;;2.38;;
24813;SDS011;12904;50.088;11.414;2023-12-20T08:22:10;2.20;;;1.92;;
24813;SDS011;12904;50.088;11.414;2023-12-20T08:24:37;3.63;;;2.33;;
24813;SDS011;12904;50.088;11.414;2023-12-20T08:27:03;3.78;;;2.58;;
24813;SDS011;12904;50.088;11.414;2023-12-20T08:29:29;3.20;;;2.03;;
24813;SDS011;12904;50.088;11.414;2023-12-20T08:31:55;3.20;;;2.30;;
24813;SDS011;12904;50.088;11.414;2023-12-20T08:34:21;2.65;;;2.35;;
24813;SDS011;12904;50.088;11.414;2023-12-20T08:36:46;7.85;;;7.07;;
24813;SDS011;12904;50.088;11.414;2023-12-20T08:39:12;3.00;;;2.63;;
24813;SDS011;12904;50.088;11.414;2023-12-20T08:41:38;4.22;;;3.25;;
24813;SDS011;12904;50.088;11.414;2023-12-20T08:44:03;2.17;;;1.85;;
24813;SDS011;12904;50.088;11.414;2023-12-20T08:46:29;2.90;;;2.42;;
24813;SDS011;12904;50.088;11.414;2023-12-20T08:48:55;2.90;;;2.35;;
24813;SDS011;12904;50.088;11.414;2023-12-20T08:51:21;5.63;;;2.92;;
24813;SDS011;12904;50.088;11.414;2023-12-20T08:53:48;2.72;;;2.17;;
24813;SDS011;12904;50.088;11.414;2023-12-20T08:56:14;4.65;;;4.13;;
24813;SDS011;12904;50.088;11.414;2023-12-20T08:58:40;1.63;;;1.50;;
24813;SDS011;12904;50.088;11.414;2023-12-20T09:01:06;1.98;;;1.60;;
24813;SDS011;12904;50.088;11.414;2023-12-20T09:03:32;3.72;;;3.15;;
24813;SDS011;12904;50.088;11.414;2023-12-20T09:05:58;2.45;;;2.22;;
24813;SDS011;12904;50.088;11.414;2023-12-20T09:08:23;1.70;;;1.40;;
24813;SDS011;12904;50.088;11.414;2023-12-20T09:10:49;1.60;;;1.50;;
24813;SDS011;12904;50.088;11.414;2023-12-20T09:13:15;16.77;;;12.45;;
24813;SDS011;12904;50.088;11.414;2023-12-20T09:15:40;2.88;;;1.55;;
24813;SDS011;12904;50.088;11.414;2023-12-20T09:18:06;2.17;;;1.85;;
24813;SDS011;12904;50.088;11.414;2023-12-20T09:20:32;1.63;;;1.35;;
24813;SDS011;12904;50.088;11.414;2023-12-20T09:22:58;2.05;;;1.30;;
24813;SDS011;12904;50.088;11.414;2023-12-20T09:25:24;6.75;;;2.85;;
24813;SDS011;12904;50.088;11.414;2023-12-20T09:27:51;2.17;;;1.17;;
24813;SDS011;12904;50.088;11.414;2023-12-20T09:30:17;2.72;;;1.25;;
24813;SDS011;12904;50.088;11.414;2023-12-20T09:32:43;3.22;;;1.90;;
24813;SDS011;12904;50.088;11.414;2023-12-20T09:35:10;1.63;;;1.20;;
24813;SDS011;12904;50.088;11.414;2023-12-20T09:37:35;2.38;;;1.30;;
24813;SDS011;12904;50.088;11.414;2023-12-20T09:40:01;3.67;;;1.20;;
24813;SDS011;12904;50.088;11.414;2023-12-20T09:42:56;3.00;;;1.55;;
24813;SDS011;12904;50.088;11.414;2023-12-20T09:45:21;4.78;;;1.80;;
24813;SDS011;12904;50.088;11.414;2023-12-20T09:47:48;2.95;;;1.30;;
24813;SDS011;12904;50.088;11.414;2023-12-20T09:50:15;1.67;;;1.58;;
24813;SDS011;12904;50.088;11.414;2023-12-20T09:52:44;5.28;;;1.52;;
24813;SDS011;12904;50.088;11.414;2023-12-20T09:55:14;3.45;;;1.30;;
24813;SDS011;12904;50.088;11.414;2023-12-20T09:57:42;1.83;;;1.20;;
24813;SDS011;12904;50.088;11.414;2023-12-20T10:00:08;3.45;;;1.35;;
24813;SDS011;12904;50.088;11.414;2023-12-20T10:02:34;3.13;;;1.60;;
24813;SDS011;12904;50.088;11.414;2023-12-20T10:05:03;1.92;;;1.20;;
24813;SDS011;12904;50.088;11.414;2023-12-20T10:07:34;3.73;;;1.30;;
24813;SDS011;12904;50.088;11.414;2023-12-20T10:10:00;3.85;;;1.30;;
24813;SDS011;12904;50.088;11.414;2023-12-20T10:12:27;2.75;;;1.10;;
24813;SDS011;12904;50.088;11.414;2023-12-20T10:14:53;4.53;;;1.20;;
24813;SDS011;12904;50.088;11.414;2023-12-20T10:17:19;1.55;;;1.20;;
24813;SDS011;12904;50.088;11.414;2023-12-20T10:19:47;3.60;;;1.20;;
24813;SDS011;12904;50.088;11.414;2023-12-20T10:22:12;6.43;;;1.55;;
24813;SDS011;12904;50.088;11.414;2023-12-20T10:24:39;2.33;;;1.27;;
24813;SDS011;12904;50.088;11.414;2023-12-20T10:27:06;4.93;;;1.20;;
24813;SDS011;12904;50.088;11.414;2023-12-20T10:29:35;3.78;;;1.35;;
24813;SDS011;12904;50.088;11.414;2023-12-20T10:35:00;5.25;;;1.27;;
24813;SDS011;12904;50.088;11.414;2023-12-20T10:37:25;3.22;;;1.00;;
24813;SDS011;12904;50.088;11.414;2023-12-20T10:39:52;4.05;;;1.15;;
24813;SDS011;12904;50.088;11.414;2023-12-20T10:42:23;2.92;;;1.58;;
24813;SDS011;12904;50.088;11.414;2023-12-20T10:44:51;4.38;;;0.82;;
24813;SDS011;12904;50.088;11.414;2023-12-20T10:47:18;7.90;;;1.20;;
24813;SDS011;12904;50.088;11.414;2023-12-20T10:49:45;5.30;;;1.50;;
24813;SDS011;12904;50.088;11.414;2023-12-20T10:52:11;1.63;;;1.00;;
24813;SDS011;12904;50.088;11.414;2023-12-20T10:54:40;2.83;;;1.17;;
24813;SDS011;12904;50.088;11.414;2023-12-20T10:57:06;2.45;;;1.10;;
24813;SDS011;12904;50.088;11.414;2023-12-20T10:59:33;3.38;;;1.30;;
24813;SDS011;12904;50.088;11.414;2023-12-20T11:02:01;1.98;;;1.05;;
24813;SDS011;12904;50.088;11.414;2023-12-20T11:07:31;8.82;;;1.30;;
24813;SDS011;12904;50.088;11.414;2023-12-20T11:10:10;3.17;;;1.10;;
24813;SDS011;12904;50.088;11.414;2023-12-20T11:12:47;2.85;;;1.15;;
24813;SDS011;12904;50.088;11.414;2023-12-20T11:15:18;5.82;;;1.40;;
24813;SDS011;12904;50.088;11.414;2023-12-20T11:17:45;2.65;;;1.00;;
24813;SDS011;12904;50.088;11.414;2023-12-20T11:20:13;5.30;;;1.30;;
24813;SDS011;12904;50.088;11.414;2023-12-20T11:22:39;4.70;;;0.98;;
24813;SDS011;12904;50.088;11.414;2023-12-20T11:25:17;2.90;;;1.00;;
24813;SDS011;12904;50.088;11.414;2023-12-20T11:27:43;4.15;;;1.15;;
24813;SDS011;12904;50.088;11.414;2023-12-20T11:30:10;2.55;;;1.27;;
24813;SDS011;12904;50.088;11.414;2023-12-20T11:32:36;2.60;;;0.90;;
24813;SDS011;12904;50.088;11.414;2023-12-20T11:37:37;3.38;;;1.67;;
24813;SDS011;12904;50.088;11.414;2023-12-20T11:40:08;18.73;;;7.13;;
24813;SDS011;12904;50.088;11.414;2023-12-20T11:42:40;3.42;;;1.73;;
24813;SDS011;12904;50.088;11.414;2023-12-20T11:45:16;2.45;;;1.63;;
24813;SDS011;12904;50.088;11.414;2023-12-20T11:47:47;4.47;;;1.50;;
24813;SDS011;12904;50.088;11.414;2023-12-20T11:50:16;5.45;;;1.80;;
24813;SDS011;12904;50.088;11.414;2023-12-20T11:52:42;3.08;;;0.90;;
24813;SDS011;12904;50.088;11.414;2023-12-20T11:55:08;3.42;;;1.25;;
24813;SDS011;12904;50.088;11.414;2023-12-20T11:57:33;1.95;;;0.90;;
24813;SDS011;12904;50.088;11.414;2023-12-20T12:00:01;5.18;;;1.55;;
24813;SDS011;12904;50.088;11.414;2023-12-20T12:02:27;2.58;;;0.93;;
24813;SDS011;12904;50.088;11.414;2023-12-20T12:04:53;2.20;;;0.90;;
24813;SDS011;12904;50.088;11.414;2023-12-20T12:07:20;3.55;;;1.13;;
24813;SDS011;12904;50.088;11.414;2023-12-20T12:09:46;2.55;;;1.00;;
24813;SDS011;12904;50.088;11.414;2023-12-20T12:12:12;3.17;;;1.10;;
24813;SDS011;12904;50.088;11.414;2023-12-20T12:14:38;4.10;;;1.00;;
24813;SDS011;12904;50.088;11.414;2023-12-20T12:17:06;2.92;;;1.58;;
24813;SDS011;12904;50.088;11.414;2023-12-20T12:19:36;3.85;;;2.95;;
24813;SDS011;12904;50.088;11.414;2023-12-20T12:22:05;4.38;;;1.40;;
24813;SDS011;12904;50.088;11.414;2023-12-20T12:24:47;2.40;;;0.98;;
24813;SDS011;12904;50.088;11.414;2023-12-20T12:27:14;5.25;;;1.35;;
24813;SDS011;12904;50.088;11.414;2023-12-20T12:29:41;2.28;;;1.38;;
24813;SDS011;12904;50.088;11.414;2023-12-20T12:32:29;2.40;;;1.38;;
24813;SDS011;12904;50.088;11.414;2023-12-20T12:34:54;3.97;;;1.48;;
24813;SDS011;12904;50.088;11.414;2023-12-20T12:37:20;3.35;;;1.30;;
24813;SDS011;12904;50.088;11.414;2023-12-20T12:39:48;6.13;;;1.10;;
24813;SDS011;12904;50.088;11.414;2023-12-20T12:42:14;4.10;;;0.80;;
24813;SDS011;12904;50.088;11.414;2023-12-20T12:44:40;5.05;;;1.10;;
24813;SDS011;12904;50.088;11.414;2023-12-20T12:47:06;4.93;;;1.88;;
24813;SDS011;12904;50.088;11.414;2023-12-20T12:49:32;2.15;;;0.80;;
24813;SDS011;12904;50.088;11.414;2023-12-20T12:51:58;4.63;;;0.80;;
24813;SDS011;12904;50.088;11.414;2023-12-20T12:54:24;3.85;;;1.10;;
24813;SDS011;12904;50.088;11.414;2023-12-20T12:56:49;2.17;;;1.05;;
24813;SDS011;12904;50.088;11.414;2023-12-20T12:59:16;5.85;;;1.25;;
24813;SDS011;12904;50.088;11.414;2023-12-20T13:01:42;2.35;;;1.00;;
24813;SDS011;12904;50.088;11.414;2023-12-20T13:04:07;2.83;;;0.98;;
24813;SDS011;12904;50.088;11.414;2023-12-20T13:06:36;4.30;;;1.15;;
24813;SDS011;12904;50.088;11.414;2023-12-20T13:09:03;4.53;;;0.98;;
24813;SDS011;12904;50.088;11.414;2023-12-20T13:11:29;3.30;;;1.10;;
24813;SDS011;12904;50.088;11.414;2023-12-20T13:13:56;5.72;;;1.33;;
24813;SDS011;12904;50.088;11.414;2023-12-20T13:16:22;2.25;;;1.10;;
24813;SDS011;12904;50.088;11.414;2023-12-20T13:18:49;2.45;;;0.98;;
24813;SDS011;12904;50.088;11.414;2023-12-20T13:21:15;3.67;;;0.90;;
24813;SDS011;12904;50.088;11.414;2023-12-20T13:23:41;1.90;;;1.00;;
24813;SDS011;12904;50.088;11.414;2023-12-20T13:26:07;2.47;;;1.20;;
24813;SDS011;12904;50.088;11.414;2023-12-20T13:28:33;1.88;;;0.75;;
24813;SDS011;12904;50.088;11.414;2023-12-20T13:30:58;5.72;;;1.13;;
24813;SDS011;12904;50.088;11.414;2023-12-20T13:33:24;2.50;;;1.00;;
24813;SDS011;12904;50.088;11.414;2023-12-20T13:35:50;4.75;;;1.23;;
24813;SDS011;12904;50.088;11.414;2023-12-20T13:38:16;3.08;;;0.90;;
24813;SDS011;12904;50.088;11.414;2023-12-20T13:40:42;5.65;;;1.58;;
24813;SDS011;12904;50.088;11.414;2023-12-20T13:43:08;3.03;;;0.90;;
24813;SDS011;12904;50.088;11.414;2023-12-20T13:45:35;3.83;;;1.00;;
24813;SDS011;12904;50.088;11.414;2023-12-20T13:48:01;3.03;;;0.95;;
24813;SDS011;12904;50.088;11.414;2023-12-20T13:50:26;5.03;;;0.80;;
24813;SDS011;12904;50.088;11.414;2023-12-20T13:52:52;4.75;;;1.80;;
24813;SDS011;12904;50.088;11.414;2023-12-20T13:55:18;4.97;;;1.70;;
24813;SDS011;12904;50.088;11.414;2023-12-20T13:57:47;2.08;;;1.52;;
24813;SDS011;12904;50.088;11.414;2023-12-20T14:00:13;6.35;;;1.10;;
24813;SDS011;12904;50.088;11.414;2023-12-20T14:02:40;2.88;;;1.05;;
24813;SDS011;12904;50.088;11.414;2023-12-20T14:05:06;3.20;;;1.00;;
24813;SDS011;12904;50.088;11.414;2023-12-20T14:07:32;4.63;;;1.65;;
24813;SDS011;12904;50.088;11.414;2023-12-20T14:09:58;3.22;;;1.20;;
24813;SDS011;12904;50.088;11.414;2023-12-20T14:12:24;4.78;;;1.15;;
24813;SDS011;12904;50.088;11.414;2023-12-20T14:14:50;2.63;;;1.15;;
24813;SDS011;12904;50.088;11.414;2023-12-20T14:17:16;2.30;;;1.00;;
24813;SDS011;12904;50.088;11.414;2023-12-20T14:19:43;4.35;;;1.10;;
24813;SDS011;12904;50.088;11.414;2023-12-20T14:22:08;4.25;;;2.28;;
24813;SDS011;12904;50.088;11.414;2023-12-20T14:24:37;2.17;;;1.00;;
24813;SDS011;12904;50.088;11.414;2023-12-20T14:27:02;1.95;;;1.00;;
24813;SDS011;12904;50.088;11.414;2023-12-20T14:29:28;7.22;;;1.20;;
24813;SDS011;12904;50.088;11.414;2023-12-20T14:31:54;10.00;;;1.95;;
24813;SDS011;12904;50.088;11.414;2023-12-20T14:34:19;3.70;;;1.38;;
24813;SDS011;12904;50.088;11.414;2023-12-20T14:36:45;4.78;;;1.40;;